sensor_id;sensor_type;location;lat;lon;timestamp;temperature;humidity
9820;DHT22;4949;48.482;9.206;2022-12-29T00:00:30;10.20;58.00
9820;DHT22;4949;48.482;9.206;2022-12-29T00:05:31;10.00;58.60
9820;DHT22;4949;48.482;9.206;2022-12-29T00:10:33;10.00;58.60
9820;DHT22;4949;48.482;9.206;2022-12-29T00:15:38;10.00;58.80
9820;DHT22;4949;48.482;9.206;2022-12-29T00:20:41;10.00;58.70
9820;DHT22;4949;48.482;9.206;2022-12-29T00:26:03;10.10;59.00
9820;DHT22;4949;48.482;9.206;2022-12-29T00:31:25;10.20;58.40
9820;DHT22;4949;48.482;9.206;2022-12-29T00:36:47;10.20;58.10
9820;DHT22;4949;48.482;9.206;2022-12-29T00:41:48;10.20;58.10
9820;DHT22;4949;48.482;9.206;2022-12-29T00:47:07;10.10;58.20
9820;DHT22;4949;48.482;9.206;2022-12-29T00:52:12;10.00;58.60
9820;DHT22;4949;48.482;9.206;2022-12-29T00:57:13;10.00;58.90
9820;DHT22;4949;48.482;9.206;2022-12-29T01:02:16;10.00;59.10
9820;DHT22;4949;48.482;9.206;2022-12-29T01:07:17;10.00;58.80
9820;DHT22;4949;48.482;9.206;2022-12-29T01:12:18;10.20;58.70
9820;DHT22;4949;48.482;9.206;2022-12-29T01:17:39;10.30;58.40
9820;DHT22;4949;48.482;9.206;2022-12-29T01:22:42;10.30;58.10
9820;DHT22;4949;48.482;9.206;2022-12-29T01:27:44;10.40;58.20
9820;DHT22;4949;48.482;9.206;2022-12-29T01:32:44;10.30;58.00
9820;DHT22;4949;48.482;9.206;2022-12-29T01:37:48;10.30;58.20
9820;DHT22;4949;48.482;9.206;2022-12-29T01:42:48;10.20;58.30
9820;DHT22;4949;48.482;9.206;2022-12-29T01:47:57;10.20;58.40
9820;DHT22;4949;48.482;9.206;2022-12-29T01:53:08;10.20;58.60
9820;DHT22;4949;48.482;9.206;2022-12-29T01:58:11;10.30;58.90
9820;DHT22;4949;48.482;9.206;2022-12-29T02:03:13;10.20;58.90
9820;DHT22;4949;48.482;9.206;2022-12-29T02:08:20;10.30;58.80
9820;DHT22;4949;48.482;9.206;2022-12-29T02:13:27;10.40;58.60
9820;DHT22;4949;48.482;9.206;2022-12-29T02:35:25;10.40;58.80
9820;DHT22;4949;48.482;9.206;2022-12-29T02:40:51;10.50;58.40
9820;DHT22;4949;48.482;9.206;2022-12-29T02:45:58;10.50;57.20
9820;DHT22;4949;48.482;9.206;2022-12-29T02:51:07;10.70;55.50
9820;DHT22;4949;48.482;9.206;2022-12-29T02:56:11;11.00;54.90
9820;DHT22;4949;48.482;9.206;2022-12-29T03:01:27;11.20;53.70
9820;DHT22;4949;48.482;9.206;2022-12-29T03:07:09;11.40;53.50
9820;DHT22;4949;48.482;9.206;2022-12-29T03:12:56;11.50;53.30
9820;DHT22;4949;48.482;9.206;2022-12-29T03:24:02;11.80;52.30
9820;DHT22;4949;48.482;9.206;2022-12-29T03:29:07;11.80;52.20
9820;DHT22;4949;48.482;9.206;2022-12-29T03:34:10;11.90;52.60
9820;DHT22;4949;48.482;9.206;2022-12-29T03:39:13;11.90;52.50
9820;DHT22;4949;48.482;9.206;2022-12-29T03:44:16;11.90;52.40
9820;DHT22;4949;48.482;9.206;2022-12-29T03:49:17;11.80;53.10
9820;DHT22;4949;48.482;9.206;2022-12-29T03:54:18;11.90;53.20
9820;DHT22;4949;48.482;9.206;2022-12-29T03:59:19;11.80;53.40
9820;DHT22;4949;48.482;9.206;2022-12-29T04:04:19;11.90;53.50
9820;DHT22;4949;48.482;9.206;2022-12-29T04:09:20;11.90;53.50
9820;DHT22;4949;48.482;9.206;2022-12-29T04:14:21;11.90;53.60
9820;DHT22;4949;48.482;9.206;2022-12-29T04:19:22;12.00;53.70
9820;DHT22;4949;48.482;9.206;2022-12-29T04:24:22;12.10;53.40
9820;DHT22;4949;48.482;9.206;2022-12-29T04:29:23;12.00;53.50
9820;DHT22;4949;48.482;9.206;2022-12-29T04:34:24;11.90;53.80
9820;DHT22;4949;48.482;9.206;2022-12-29T04:39:27;11.80;54.30
9820;DHT22;4949;48.482;9.206;2022-12-29T04:44:28;11.90;54.10
9820;DHT22;4949;48.482;9.206;2022-12-29T04:49:31;11.90;54.90
9820;DHT22;4949;48.482;9.206;2022-12-29T04:54:32;11.90;53.90
9820;DHT22;4949;48.482;9.206;2022-12-29T04:59:35;11.90;54.20
9820;DHT22;4949;48.482;9.206;2022-12-29T05:04:36;11.90;54.00
9820;DHT22;4949;48.482;9.206;2022-12-29T05:09:36;12.10;53.60
9820;DHT22;4949;48.482;9.206;2022-12-29T05:14:37;12.10;53.40
9820;DHT22;4949;48.482;9.206;2022-12-29T05:19:38;12.10;53.10
9820;DHT22;4949;48.482;9.206;2022-12-29T05:24:39;12.10;53.10
9820;DHT22;4949;48.482;9.206;2022-12-29T05:29:40;12.10;53.30
9820;DHT22;4949;48.482;9.206;2022-12-29T05:34:41;12.10;53.40
9820;DHT22;4949;48.482;9.206;2022-12-29T05:39:41;12.10;53.40
9820;DHT22;4949;48.482;9.206;2022-12-29T05:44:42;12.20;53.80
9820;DHT22;4949;48.482;9.206;2022-12-29T05:49:43;12.10;54.20
9820;DHT22;4949;48.482;9.206;2022-12-29T05:54:43;12.00;55.10
9820;DHT22;4949;48.482;9.206;2022-12-29T05:59:47;12.10;55.10
9820;DHT22;4949;48.482;9.206;2022-12-29T06:04:47;12.10;55.20
9820;DHT22;4949;48.482;9.206;2022-12-29T06:09:48;12.20;55.10
9820;DHT22;4949;48.482;9.206;2022-12-29T06:14:49;12.40;55.30
9820;DHT22;4949;48.482;9.206;2022-12-29T06:19:50;12.30;55.30
9820;DHT22;4949;48.482;9.206;2022-12-29T06:24:50;12.40;55.30
9820;DHT22;4949;48.482;9.206;2022-12-29T06:29:53;12.40;55.40
9820;DHT22;4949;48.482;9.206;2022-12-29T06:34:54;12.50;54.90
9820;DHT22;4949;48.482;9.206;2022-12-29T06:39:55;12.50;55.20
9820;DHT22;4949;48.482;9.206;2022-12-29T06:44:58;12.50;55.10
9820;DHT22;4949;48.482;9.206;2022-12-29T06:50:01;12.60;55.40
9820;DHT22;4949;48.482;9.206;2022-12-29T06:55:02;12.50;55.70
9820;DHT22;4949;48.482;9.206;2022-12-29T07:00:04;12.50;55.30
9820;DHT22;4949;48.482;9.206;2022-12-29T07:05:08;12.50;55.20
9820;DHT22;4949;48.482;9.206;2022-12-29T07:10:11;12.50;55.50
9820;DHT22;4949;48.482;9.206;2022-12-29T07:15:12;12.50;55.20
9820;DHT22;4949;48.482;9.206;2022-12-29T07:20:13;12.60;55.00
9820;DHT22;4949;48.482;9.206;2022-12-29T07:25:13;12.60;55.10
9820;DHT22;4949;48.482;9.206;2022-12-29T07:30:15;12.70;54.90
9820;DHT22;4949;48.482;9.206;2022-12-29T07:35:18;12.60;55.30
9820;DHT22;4949;48.482;9.206;2022-12-29T07:40:19;12.70;55.10
9820;DHT22;4949;48.482;9.206;2022-12-29T07:45:19;12.80;55.20
9820;DHT22;4949;48.482;9.206;2022-12-29T07:50:20;12.70;55.10
9820;DHT22;4949;48.482;9.206;2022-12-29T07:55:23;12.70;54.70
9820;DHT22;4949;48.482;9.206;2022-12-29T08:00:26;12.70;54.40
9820;DHT22;4949;48.482;9.206;2022-12-29T08:05:30;12.70;54.70
9820;DHT22;4949;48.482;9.206;2022-12-29T08:10:32;12.80;53.80
9820;DHT22;4949;48.482;9.206;2022-12-29T08:15:33;13.00;53.30
9820;DHT22;4949;48.482;9.206;2022-12-29T08:20:37;13.00;52.90
9820;DHT22;4949;48.482;9.206;2022-12-29T08:25:38;13.10;52.60
9820;DHT22;4949;48.482;9.206;2022-12-29T08:30:38;13.10;52.70
9820;DHT22;4949;48.482;9.206;2022-12-29T08:35:39;13.20;52.60
9820;DHT22;4949;48.482;9.206;2022-12-29T08:40:40;13.20;52.80
9820;DHT22;4949;48.482;9.206;2022-12-29T08:45:41;13.10;52.80
9820;DHT22;4949;48.482;9.206;2022-12-29T08:50:44;13.00;53.10
9820;DHT22;4949;48.482;9.206;2022-12-29T08:55:56;13.00;53.40
9820;DHT22;4949;48.482;9.206;2022-12-29T09:00:58;13.00;53.50
9820;DHT22;4949;48.482;9.206;2022-12-29T09:06:01;13.00;54.10
9820;DHT22;4949;48.482;9.206;2022-12-29T09:11:11;13.00;53.80
9820;DHT22;4949;48.482;9.206;2022-12-29T09:16:17;13.10;54.20
9820;DHT22;4949;48.482;9.206;2022-12-29T09:21:18;13.20;54.50
9820;DHT22;4949;48.482;9.206;2022-12-29T09:26:19;13.00;55.70
9820;DHT22;4949;48.482;9.206;2022-12-29T09:31:20;13.00;55.80
9820;DHT22;4949;48.482;9.206;2022-12-29T09:36:23;13.20;55.20
9820;DHT22;4949;48.482;9.206;2022-12-29T09:41:38;13.20;55.20
9820;DHT22;4949;48.482;9.206;2022-12-29T09:46:46;13.10;55.40
9820;DHT22;4949;48.482;9.206;2022-12-29T09:51:52;13.10;55.50
9820;DHT22;4949;48.482;9.206;2022-12-29T09:56:55;13.10;55.50
9820;DHT22;4949;48.482;9.206;2022-12-29T10:07:44;13.10;55.70
9820;DHT22;4949;48.482;9.206;2022-12-29T10:13:00;13.20;55.60
9820;DHT22;4949;48.482;9.206;2022-12-29T10:23:45;13.20;55.60
9820;DHT22;4949;48.482;9.206;2022-12-29T10:28:57;13.20;56.10
9820;DHT22;4949;48.482;9.206;2022-12-29T10:34:10;13.30;56.00
9820;DHT22;4949;48.482;9.206;2022-12-29T10:39:39;13.20;56.40
9820;DHT22;4949;48.482;9.206;2022-12-29T10:44:44;13.00;56.90
9820;DHT22;4949;48.482;9.206;2022-12-29T10:49:46;13.10;57.50
9820;DHT22;4949;48.482;9.206;2022-12-29T10:54:53;13.10;57.80
9820;DHT22;4949;48.482;9.206;2022-12-29T10:59:57;13.10;57.80
9820;DHT22;4949;48.482;9.206;2022-12-29T11:05:14;13.10;58.00
9820;DHT22;4949;48.482;9.206;2022-12-29T11:10:39;13.00;58.10
9820;DHT22;4949;48.482;9.206;2022-12-29T11:15:46;13.00;58.60
9820;DHT22;4949;48.482;9.206;2022-12-29T11:20:50;13.00;59.40
9820;DHT22;4949;48.482;9.206;2022-12-29T11:26:20;13.00;60.90
9820;DHT22;4949;48.482;9.206;2022-12-29T11:31:24;12.70;63.60
9820;DHT22;4949;48.482;9.206;2022-12-29T11:36:27;12.70;64.50
9820;DHT22;4949;48.482;9.206;2022-12-29T11:41:31;12.80;65.70
9820;DHT22;4949;48.482;9.206;2022-12-29T11:46:37;13.50;63.70
9820;DHT22;4949;48.482;9.206;2022-12-29T11:51:47;13.70;61.30
9820;DHT22;4949;48.482;9.206;2022-12-29T11:56:50;13.60;61.30
9820;DHT22;4949;48.482;9.206;2022-12-29T12:01:52;13.40;61.40
9820;DHT22;4949;48.482;9.206;2022-12-29T12:07:17;13.20;61.90
9820;DHT22;4949;48.482;9.206;2022-12-29T12:12:34;13.20;62.20
9820;DHT22;4949;48.482;9.206;2022-12-29T12:17:53;12.90;63.70
9820;DHT22;4949;48.482;9.206;2022-12-29T12:34:04;12.70;66.00
9820;DHT22;4949;48.482;9.206;2022-12-29T12:39:33;12.60;67.60
9820;DHT22;4949;48.482;9.206;2022-12-29T13:12:29;12.40;67.40
9820;DHT22;4949;48.482;9.206;2022-12-29T13:23:43;12.40;68.20
9820;DHT22;4949;48.482;9.206;2022-12-29T13:34:56;12.40;69.10
9820;DHT22;4949;48.482;9.206;2022-12-29T13:40:13;12.40;68.90
9820;DHT22;4949;48.482;9.206;2022-12-29T13:45:22;12.40;68.30
9820;DHT22;4949;48.482;9.206;2022-12-29T13:50:26;12.50;66.90
9820;DHT22;4949;48.482;9.206;2022-12-29T14:01:49;12.60;66.00
9820;DHT22;4949;48.482;9.206;2022-12-29T14:07:15;12.70;65.90
9820;DHT22;4949;48.482;9.206;2022-12-29T14:12:28;12.90;64.70
9820;DHT22;4949;48.482;9.206;2022-12-29T14:17:32;13.00;63.70
9820;DHT22;4949;48.482;9.206;2022-12-29T14:22:32;12.80;63.10
9820;DHT22;4949;48.482;9.206;2022-12-29T14:27:52;13.00;63.70
9820;DHT22;4949;48.482;9.206;2022-12-29T14:33:10;13.10;61.70
9820;DHT22;4949;48.482;9.206;2022-12-29T14:38:22;13.00;61.60
9820;DHT22;4949;48.482;9.206;2022-12-29T14:43:26;13.10;61.50
9820;DHT22;4949;48.482;9.206;2022-12-29T14:48:35;13.00;61.20
9820;DHT22;4949;48.482;9.206;2022-12-29T14:53:50;12.90;62.00
9820;DHT22;4949;48.482;9.206;2022-12-29T14:59:02;12.80;61.70
9820;DHT22;4949;48.482;9.206;2022-12-29T15:04:23;12.80;62.00
9820;DHT22;4949;48.482;9.206;2022-12-29T15:09:34;12.80;61.80
9820;DHT22;4949;48.482;9.206;2022-12-29T15:14:51;12.80;61.30
9820;DHT22;4949;48.482;9.206;2022-12-29T15:19:58;12.80;61.40
9820;DHT22;4949;48.482;9.206;2022-12-29T15:25:01;12.90;60.90
9820;DHT22;4949;48.482;9.206;2022-12-29T15:30:04;12.80;61.00
9820;DHT22;4949;48.482;9.206;2022-12-29T15:35:26;12.80;61.40
9820;DHT22;4949;48.482;9.206;2022-12-29T15:40:34;12.70;61.20
9820;DHT22;4949;48.482;9.206;2022-12-29T15:45:35;12.60;61.40
9820;DHT22;4949;48.482;9.206;2022-12-29T15:50:40;12.60;61.30
9820;DHT22;4949;48.482;9.206;2022-12-29T15:55:43;12.60;60.30
9820;DHT22;4949;48.482;9.206;2022-12-29T16:00:54;12.60;60.20
9820;DHT22;4949;48.482;9.206;2022-12-29T16:06:24;12.50;60.30
9820;DHT22;4949;48.482;9.206;2022-12-29T16:11:38;12.50;60.40
9820;DHT22;4949;48.482;9.206;2022-12-29T16:16:43;12.50;61.00
9820;DHT22;4949;48.482;9.206;2022-12-29T16:21:47;12.50;60.60
9820;DHT22;4949;48.482;9.206;2022-12-29T16:26:51;12.50;60.20
9820;DHT22;4949;48.482;9.206;2022-12-29T16:32:22;12.50;60.60
9820;DHT22;4949;48.482;9.206;2022-12-29T16:37:33;12.50;60.20
9820;DHT22;4949;48.482;9.206;2022-12-29T16:42:46;12.40;60.40
9820;DHT22;4949;48.482;9.206;2022-12-29T16:53:24;12.40;59.90
9820;DHT22;4949;48.482;9.206;2022-12-29T16:58:27;12.40;59.90
9820;DHT22;4949;48.482;9.206;2022-12-29T17:03:42;12.40;59.70
9820;DHT22;4949;48.482;9.206;2022-12-29T17:08:49;12.20;60.30
9820;DHT22;4949;48.482;9.206;2022-12-29T17:13:51;12.30;60.10
9820;DHT22;4949;48.482;9.206;2022-12-29T17:18:52;12.30;60.60
9820;DHT22;4949;48.482;9.206;2022-12-29T17:23:55;12.20;60.80
9820;DHT22;4949;48.482;9.206;2022-12-29T17:28:57;12.20;61.30
9820;DHT22;4949;48.482;9.206;2022-12-29T17:33:58;12.20;61.10
9820;DHT22;4949;48.482;9.206;2022-12-29T17:38:59;12.30;60.70
9820;DHT22;4949;48.482;9.206;2022-12-29T17:44:01;12.20;60.80
9820;DHT22;4949;48.482;9.206;2022-12-29T17:49:08;12.20;60.40
9820;DHT22;4949;48.482;9.206;2022-12-29T17:54:24;12.40;61.10
9820;DHT22;4949;48.482;9.206;2022-12-29T17:59:25;12.20;60.80
9820;DHT22;4949;48.482;9.206;2022-12-29T18:04:26;12.30;60.60
9820;DHT22;4949;48.482;9.206;2022-12-29T18:09:29;12.10;60.20
9820;DHT22;4949;48.482;9.206;2022-12-29T18:14:30;12.20;59.90
9820;DHT22;4949;48.482;9.206;2022-12-29T18:19:31;12.20;59.80
9820;DHT22;4949;48.482;9.206;2022-12-29T18:24:32;12.20;60.00
9820;DHT22;4949;48.482;9.206;2022-12-29T18:29:33;12.20;59.50
9820;DHT22;4949;48.482;9.206;2022-12-29T18:34:37;12.20;59.40
9820;DHT22;4949;48.482;9.206;2022-12-29T18:39:38;12.30;59.00
9820;DHT22;4949;48.482;9.206;2022-12-29T18:44:39;12.20;59.40
9820;DHT22;4949;48.482;9.206;2022-12-29T18:49:39;12.20;59.30
9820;DHT22;4949;48.482;9.206;2022-12-29T18:54:40;12.20;59.20
9820;DHT22;4949;48.482;9.206;2022-12-29T18:59:41;12.20;59.50
9820;DHT22;4949;48.482;9.206;2022-12-29T19:04:41;12.10;59.70
9820;DHT22;4949;48.482;9.206;2022-12-29T19:09:42;12.10;60.50
9820;DHT22;4949;48.482;9.206;2022-12-29T19:14:43;12.00;60.90
9820;DHT22;4949;48.482;9.206;2022-12-29T19:19:44;12.10;60.60
9820;DHT22;4949;48.482;9.206;2022-12-29T19:24:45;12.20;60.60
9820;DHT22;4949;48.482;9.206;2022-12-29T19:29:46;12.20;60.70
9820;DHT22;4949;48.482;9.206;2022-12-29T19:34:46;12.30;60.70
9820;DHT22;4949;48.482;9.206;2022-12-29T19:39:48;12.30;61.70
9820;DHT22;4949;48.482;9.206;2022-12-29T19:44:48;12.30;61.30
9820;DHT22;4949;48.482;9.206;2022-12-29T19:49:56;12.20;62.20
9820;DHT22;4949;48.482;9.206;2022-12-29T19:55:13;12.10;62.50
9820;DHT22;4949;48.482;9.206;2022-12-29T20:00:21;12.10;62.70
9820;DHT22;4949;48.482;9.206;2022-12-29T20:05:25;12.10;62.60
9820;DHT22;4949;48.482;9.206;2022-12-29T20:10:29;12.00;62.90
9820;DHT22;4949;48.482;9.206;2022-12-29T20:15:49;12.10;63.00
9820;DHT22;4949;48.482;9.206;2022-12-29T20:21:26;12.00;63.20
9820;DHT22;4949;48.482;9.206;2022-12-29T20:26:52;12.10;62.80
9820;DHT22;4949;48.482;9.206;2022-12-29T20:31:56;12.20;64.00
9820;DHT22;4949;48.482;9.206;2022-12-29T20:36:57;12.10;67.70
9820;DHT22;4949;48.482;9.206;2022-12-29T20:41:58;11.70;69.90
9820;DHT22;4949;48.482;9.206;2022-12-29T20:47:00;10.90;74.20
9820;DHT22;4949;48.482;9.206;2022-12-29T20:52:04;10.60;73.90
9820;DHT22;4949;48.482;9.206;2022-12-29T20:57:08;10.50;74.10
9820;DHT22;4949;48.482;9.206;2022-12-29T21:02:21;10.40;75.30
9820;DHT22;4949;48.482;9.206;2022-12-29T21:07:22;10.20;74.80
9820;DHT22;4949;48.482;9.206;2022-12-29T21:12:25;10.10;76.20
9820;DHT22;4949;48.482;9.206;2022-12-29T21:17:28;10.00;77.20
9820;DHT22;4949;48.482;9.206;2022-12-29T21:22:31;10.00;77.70
9820;DHT22;4949;48.482;9.206;2022-12-29T21:27:32;10.10;77.30
9820;DHT22;4949;48.482;9.206;2022-12-29T21:32:33;10.00;77.60
9820;DHT22;4949;48.482;9.206;2022-12-29T21:37:36;9.90;78.80
9820;DHT22;4949;48.482;9.206;2022-12-29T21:42:37;9.80;79.30
9820;DHT22;4949;48.482;9.206;2022-12-29T21:47:40;9.80;78.50
9820;DHT22;4949;48.482;9.206;2022-12-29T21:53:01;9.90;77.00
9820;DHT22;4949;48.482;9.206;2022-12-29T21:58:02;9.80;78.00
9820;DHT22;4949;48.482;9.206;2022-12-29T22:03:21;9.70;77.50
9820;DHT22;4949;48.482;9.206;2022-12-29T22:08:43;9.70;77.40
9820;DHT22;4949;48.482;9.206;2022-12-29T22:14:02;9.60;77.50
9820;DHT22;4949;48.482;9.206;2022-12-29T22:19:03;9.50;78.00
9820;DHT22;4949;48.482;9.206;2022-12-29T22:24:04;9.40;79.50
9820;DHT22;4949;48.482;9.206;2022-12-29T22:29:10;9.30;80.10
9820;DHT22;4949;48.482;9.206;2022-12-29T22:34:10;9.60;77.70
9820;DHT22;4949;48.482;9.206;2022-12-29T22:39:13;9.50;77.60
9820;DHT22;4949;48.482;9.206;2022-12-29T22:44:15;9.40;77.70
9820;DHT22;4949;48.482;9.206;2022-12-29T22:49:16;9.30;77.10
9820;DHT22;4949;48.482;9.206;2022-12-29T22:54:20;9.20;76.90
9820;DHT22;4949;48.482;9.206;2022-12-29T22:59:23;9.10;76.60
9820;DHT22;4949;48.482;9.206;2022-12-29T23:04:23;9.10;75.40
9820;DHT22;4949;48.482;9.206;2022-12-29T23:09:26;8.90;75.00
9820;DHT22;4949;48.482;9.206;2022-12-29T23:14:32;8.90;74.20
9820;DHT22;4949;48.482;9.206;2022-12-29T23:19:33;8.80;74.70
9820;DHT22;4949;48.482;9.206;2022-12-29T23:24:33;8.80;75.30
9820;DHT22;4949;48.482;9.206;2022-12-29T23:29:37;8.90;74.70
9820;DHT22;4949;48.482;9.206;2022-12-29T23:34:37;8.90;74.00
9820;DHT22;4949;48.482;9.206;2022-12-29T23:39:38;9.00;73.70
9820;DHT22;4949;48.482;9.206;2022-12-29T23:44:39;8.80;74.90
9820;DHT22;4949;48.482;9.206;2022-12-29T23:49:45;8.90;73.10
9820;DHT22;4949;48.482;9.206;2022-12-29T23:54:48;9.00;72.80
9820;DHT22;4949;48.482;9.206;2022-12-29T23:59:49;8.90;73.10
